Woodbridge, Connecticut
Current Conditions -  °F | °C
As of 4:53 PM on Monday 20 Oct 2014 (Local Time) from KHVN Reporting Station
Broken Clouds Broken Clouds  
Wind Chill: 60°   Ceiling: 14000
Heat Index: 60°   Visibility: 10mi
Dew Point: 39°   Wind: 7mph
Humidity: 46%   Direction: 220°SW
Pressure: 29.99"   Gusts: NA
Location:  41.35°N, 73.01°W
Report Text: KHVN 202053Z 22006KT 10SM FEW060 BKN140 BKN250 16/04 A2999 RMK AO2 SLP155 T01560039 56017
Loading
Personal Weather Stations






























Interactive Weather Map
Tropical Storm Tracking
New forecast layout! Learn more

10-Day Weather Forecast

Advertisements
Track Severe Weather on mobile